Time;durP1;ratioP1;P1;durP2;ratioP2;P2;SDS_P1;SDS_P2;PMS_P1;PMS_P2;Temp;Humidity;BMP_temperature;BMP_pressure;BME280_temperature;BME280_humidity;BME280_pressure;Samples;Min_cycle;Max_cycle;Signal;HPM_P1;HPM_P2
2023/08/21 00:01:47;;;;;;;7.70;1.95;;;;;;;16.42;100.00;100667.16;5000627;28;20038;-89
2023/08/21 00:04:12;;;;;;;12.10;1.67;;;;;;;16.45;100.00;100673.97;5017918;28;20044;-88
2023/08/21 00:06:38;;;;;;;11.05;1.80;;;;;;;16.39;100.00;100672.84;5011039;28;20089;-88
2023/08/21 00:09:04;;;;;;;9.65;1.27;;;;;;;16.39;100.00;100682.69;5012575;28;20034;-90
2023/08/21 00:11:30;;;;;;;11.57;2.28;;;;;;;16.44;100.00;100690.97;4982590;28;20037;-89
2023/08/21 00:13:56;;;;;;;12.00;2.20;;;;;;;16.42;100.00;100680.47;5004241;28;20031;-89
2023/08/21 00:16:22;;;;;;;10.55;1.50;;;;;;;16.48;100.00;100677.09;4975193;28;20129;-91
2023/08/21 00:18:50;;;;;;;13.70;1.50;;;;;;;16.52;100.00;100677.59;5013895;28;20112;-88
2023/08/21 00:21:16;;;;;;;9.32;1.95;;;;;;;16.48;100.00;100676.28;5001521;28;20484;-91
2023/08/21 00:23:42;;;;;;;9.05;1.13;;;;;;;16.49;100.00;100673.44;4978883;28;20045;-89
2023/08/21 00:26:08;;;;;;;7.72;1.20;;;;;;;16.48;100.00;100676.28;4994671;28;20065;-91
2023/08/21 00:28:34;;;;;;;10.05;1.48;;;;;;;16.44;100.00;100673.13;5003154;28;20038;-91
2023/08/21 00:31:04;;;;;;;8.27;1.30;;;;;;;16.47;100.00;100675.44;5019077;28;20037;-91
2023/08/21 00:33:31;;;;;;;3.63;0.82;;;;;;;16.39;100.00;100672.84;4996561;28;20117;-90
2023/08/21 00:36:03;;;;;;;11.13;1.50;;;;;;;16.42;100.00;100658.34;4996130;28;20092;-92
2023/08/21 00:38:29;;;;;;;10.85;1.60;;;;;;;16.40;100.00;100657.66;4974667;28;20077;-90
2023/08/21 00:40:55;;;;;;;7.80;1.23;;;;;;;16.40;100.00;100655.84;5013149;28;20037;-91
2023/08/21 00:43:21;;;;;;;6.07;1.02;;;;;;;16.35;100.00;100653.72;4996680;28;20033;-88
2023/08/21 00:45:50;;;;;;;7.65;1.25;;;;;;;16.37;100.00;100643.66;5001512;28;20137;-92
2023/08/21 00:48:16;;;;;;;8.05;1.38;;;;;;;16.39;100.00;100653.34;4996520;28;20026;-90
2023/08/21 00:50:43;;;;;;;10.57;1.77;;;;;;;16.37;100.00;100645.53;4993353;28;20053;-90
2023/08/21 00:53:10;;;;;;;12.38;1.23;;;;;;;16.37;100.00;100649.00;5012749;28;20084;-91
2023/08/21 00:55:37;;;;;;;12.10;1.63;;;;;;;16.41;100.00;100648.66;4995185;28;20041;-91
2023/08/21 00:58:08;;;;;;;10.23;1.52;;;;;;;16.39;100.00;100640.81;4979549;28;20033;-90
2023/08/21 01:00:35;;;;;;;6.65;1.15;;;;;;;16.39;100.00;100643.50;4995047;28;20532;-89
2023/08/21 01:03:01;;;;;;;9.60;1.27;;;;;;;16.35;100.00;100631.53;4976594;28;20034;-90
2023/08/21 01:05:27;;;;;;;7.25;1.55;;;;;;;16.33;100.00;100638.88;5012822;28;20499;-90
2023/08/21 01:08:04;;;;;;;7.22;1.00;;;;;;;16.34;100.00;100630.69;4995993;28;20033;-88
2023/08/21 01:10:55;;;;;;;3.55;0.82;;;;;;;16.32;100.00;100632.72;5004943;28;20038;-88
2023/08/21 01:13:24;;;;;;;15.77;1.75;;;;;;;16.27;100.00;100627.09;4969774;28;20145;-90
2023/08/21 01:15:54;;;;;;;9.13;1.27;;;;;;;16.30;100.00;100629.41;4987608;28;20633;-92
2023/08/21 01:18:21;;;;;;;10.07;1.58;;;;;;;16.22;100.00;100627.63;4977791;28;20117;-91
2023/08/21 01:20:48;;;;;;;8.65;1.50;;;;;;;16.30;100.00;100629.41;4982076;28;20128;-90
2023/08/21 01:23:36;;;;;;;11.40;1.40;;;;;;;16.28;100.00;100622.56;5009919;28;20068;-86
2023/08/21 01:26:03;;;;;;;8.90;1.20;;;;;;;16.21;100.00;100615.28;4979322;28;20053;-91
2023/08/21 01:28:34;;;;;;;16.58;2.20;;;;;;;16.27;100.00;100619.09;4995622;28;20030;-87
2023/08/21 01:31:13;;;;;;;8.52;1.38;;;;;;;16.22;100.00;100613.44;4991403;28;20042;-88
2023/08/21 01:33:47;;;;;;;9.35;2.22;;;;;;;16.23;100.00;100617.75;4994997;28;20042;-90
2023/08/21 01:36:14;;;;;;;12.60;1.33;;;;;;;16.18;100.00;100612.16;4994688;28;20096;-88
2023/08/21 01:38:40;;;;;;;7.93;1.35;;;;;;;16.16;100.00;100620.31;4979196;28;20034;-87
2023/08/21 01:41:06;;;;;;;5.57;1.42;;;;;;;16.19;100.00;100624.47;5008560;28;20038;-91
2023/08/21 01:43:35;;;;;;;9.00;1.35;;;;;;;16.12;100.00;100616.34;4983971;28;20174;-82
2023/08/21 01:46:03;;;;;;;9.27;1.35;;;;;;;16.17;100.00;100619.31;4991422;28;20045;-91
2023/08/21 01:48:29;;;;;;;8.75;1.40;;;;;;;16.14;100.00;100622.34;5010892;28;20030;-89
2023/08/21 01:50:55;;;;;;;11.10;1.27;;;;;;;16.15;100.00;100618.66;4993612;28;20126;-88
2023/08/21 01:53:21;;;;;;;9.13;1.30;;;;;;;16.12;100.00;100622.50;4999264;28;20033;-87
2023/08/21 01:55:47;;;;;;;9.82;1.80;;;;;;;16.11;100.00;100615.53;4982581;28;20088;-87
2023/08/21 01:58:15;;;;;;;9.43;1.60;;;;;;;16.12;100.00;100606.50;4995839;28;20161;-83
2023/08/21 02:00:41;;;;;;;9.93;1.60;;;;;;;16.11;100.00;100610.19;5011758;28;20049;-87
2023/08/21 02:03:07;;;;;;;6.55;1.10;;;;;;;16.11;100.00;100609.34;5011670;28;20038;-88
2023/08/21 02:05:38;;;;;;;7.45;1.05;;;;;;;16.14;100.00;100610.81;5014161;28;20052;-86
2023/08/21 02:08:05;;;;;;;14.85;2.25;;;;;;;16.14;100.00;100595.66;5032604;28;20369;-90
2023/08/21 02:10:31;;;;;;;8.88;1.88;;;;;;;16.20;100.00;100602.13;4983300;28;20030;-90
2023/08/21 02:12:57;;;;;;;6.70;1.20;;;;;;;16.21;100.00;100593.13;4999206;28;20157;-86
2023/08/21 02:15:23;;;;;;;11.00;1.73;;;;;;;16.22;100.00;100592.09;5012255;28;20057;-88
2023/08/21 02:17:48;;;;;;;8.25;1.30;;;;;;;16.28;100.00;100580.72;4992953;28;20404;-88
2023/08/21 02:20:14;;;;;;;9.07;1.30;;;;;;;16.31;100.00;100584.88;4994831;28;20396;-90
2023/08/21 02:22:40;;;;;;;8.15;1.02;;;;;;;16.35;100.00;100572.84;4986202;28;20081;-88
2023/08/21 02:25:06;;;;;;;8.40;1.13;;;;;;;16.38;100.00;100564.47;5010952;28;20069;-88
2023/08/21 02:27:32;;;;;;;7.97;1.15;;;;;;;16.37;100.00;100573.50;5009186;28;20034;-88
2023/08/21 02:29:58;;;;;;;9.90;1.33;;;;;;;16.27;100.00;100557.75;5012213;28;20062;-87
2023/08/21 02:32:24;;;;;;;13.80;1.90;;;;;;;16.29;100.00;100560.22;4999723;28;20038;-90
2023/08/21 02:34:50;;;;;;;5.45;0.90;;;;;;;16.24;100.00;100561.56;4994012;28;20879;-89
2023/08/21 02:37:15;;;;;;;8.48;1.40;;;;;;;16.20;100.00;100560.28;4999373;28;20049;-88
2023/08/21 02:39:41;;;;;;;9.80;1.30;;;;;;;16.26;100.00;100571.25;4998429;28;20049;-87
2023/08/21 02:42:07;;;;;;;8.52;1.30;;;;;;;16.26;100.00;100565.91;5015538;28;20369;-88
2023/08/21 02:44:33;;;;;;;6.10;1.02;;;;;;;16.26;100.00;100565.91;4979452;28;20065;-88
2023/08/21 02:46:58;;;;;;;5.70;1.00;;;;;;;16.32;100.00;100567.88;4997589;28;20040;-87
2023/08/21 02:49:24;;;;;;;6.90;1.02;;;;;;;16.33;100.00;100562.34;4983323;28;20034;-88
2023/08/21 02:51:50;;;;;;;9.75;1.65;;;;;;;16.34;100.00;100557.84;4995292;28;20046;-87
2023/08/21 02:54:16;;;;;;;9.05;1.02;;;;;;;16.33;100.00;100557.03;5000278;28;20480;-88
2023/08/21 02:56:42;;;;;;;9.20;1.00;;;;;;;16.35;100.00;100557.69;5013260;28;20034;-89
2023/08/21 02:59:08;;;;;;;7.43;1.33;;;;;;;16.35;100.00;100546.16;4995807;28;20096;-90
2023/08/21 03:01:35;;;;;;;8.27;1.13;;;;;;;16.36;100.00;100561.16;5003407;28;20480;-91
2023/08/21 03:04:01;;;;;;;6.72;1.20;;;;;;;16.33;100.00;100550.84;5000998;28;20033;-87
2023/08/21 03:06:27;;;;;;;8.13;1.05;;;;;;;16.36;100.00;100564.66;5013816;28;20084;-91
2023/08/21 03:08:53;;;;;;;5.90;0.82;;;;;;;16.34;100.00;100557.84;4995145;28;20062;-89
2023/08/21 03:11:19;;;;;;;5.95;0.90;;;;;;;16.31;100.00;100559.03;4997705;28;20377;-87
2023/08/21 03:13:45;;;;;;;5.40;0.80;;;;;;;16.30;100.00;100562.72;5013871;28;20052;-87
2023/08/21 03:16:11;;;;;;;9.93;1.13;;;;;;;16.34;100.00;100563.19;5000412;28;20045;-87
2023/08/21 03:18:57;;;;;;;6.03;0.88;;;;;;;16.37;100.00;100554.84;4979691;28;20478;-88
2023/08/21 03:21:25;;;;;;;7.47;1.08;;;;;;;16.35;100.00;100557.69;5020458;28;20064;-90
2023/08/21 03:23:54;;;;;;;7.47;0.65;;;;;;;16.40;100.00;100554.47;4982254;28;20384;-87
2023/08/21 03:26:19;;;;;;;6.38;1.00;;;;;;;16.40;100.00;100549.13;5013925;28;20042;-87
2023/08/21 03:28:45;;;;;;;5.18;0.82;;;;;;;16.42;100.00;100544.44;5013379;28;20095;-87
2023/08/21 03:31:11;;;;;;;6.65;0.93;;;;;;;16.41;100.00;100540.13;4997678;28;20033;-89
2023/08/21 03:33:37;;;;;;;5.35;0.85;;;;;;;16.46;100.00;100537.75;4995223;28;20515;-87
2023/08/21 03:36:03;;;;;;;5.55;0.95;;;;;;;16.45;100.00;100533.41;4978209;28;20423;-86
2023/08/21 03:38:29;;;;;;;3.35;0.82;;;;;;;16.52;100.00;100533.50;4989094;28;20144;-90
2023/08/21 03:40:56;;;;;;;10.13;0.90;;;;;;;16.54;100.00;100530.66;4997840;28;20052;-90
2023/08/21 03:43:22;;;;;;;4.75;0.52;;;;;;;16.57;100.00;100533.78;4998497;28;20030;-89
2023/08/21 03:45:48;;;;;;;5.82;0.80;;;;;;;16.59;100.00;100526.44;4980945;28;20033;-90
2023/08/21 03:48:14;;;;;;;5.15;0.70;;;;;;;16.65;100.00;100530.22;4996635;28;20052;-88
2023/08/21 03:50:40;;;;;;;6.45;0.77;;;;;;;16.59;100.00;100523.78;5006555;28;20105;-90
2023/08/21 03:53:05;;;;;;;6.43;0.70;;;;;;;16.67;100.00;100536.22;4981034;28;20088;-88
2023/08/21 03:55:31;;;;;;;3.70;0.80;;;;;;;16.68;100.00;100529.00;5002786;28;20046;-90
2023/08/21 03:57:57;;;;;;;6.75;0.70;;;;;;;16.67;100.00;100533.53;4980884;28;20029;-91
2023/08/21 04:00:23;;;;;;;3.15;0.80;;;;;;;16.71;100.00;100533.97;5002745;28;20038;-89
2023/08/21 04:02:50;;;;;;;10.75;0.90;;;;;;;16.71;100.00;100533.97;5015280;28;20045;-91
2023/08/21 04:05:18;;;;;;;4.40;0.82;;;;;;;16.67;100.00;100533.53;5013640;28;20029;-91
2023/08/21 04:07:44;;;;;;;6.45;0.70;;;;;;;16.72;100.00;100533.78;5013098;28;20495;-90
2023/08/21 04:10:10;;;;;;;5.22;0.52;;;;;;;16.69;100.00;100539.50;4977826;28;20038;-88
2023/08/21 04:12:36;;;;;;;3.67;0.70;;;;;;;16.70;100.00;100530.50;5013149;28;20038;-88
2023/08/21 04:15:02;;;;;;;4.07;0.70;;;;;;;16.68;100.00;100535.19;4996369;28;20041;-91
2023/08/21 04:17:29;;;;;;;2.80;0.65;;;;;;;16.71;100.00;100542.81;4998679;28;20046;-90
2023/08/21 04:19:55;;;;;;;4.03;0.70;;;;;;;16.71;100.00;100542.81;4996478;28;20438;-88
2023/08/21 04:22:21;;;;;;;4.32;0.73;;;;;;;16.71;100.00;100529.47;4980092;28;20076;-90
2023/08/21 04:24:47;;;;;;;8.43;0.57;;;;;;;16.74;100.00;100544.28;4996365;28;20038;-88
2023/08/21 04:27:13;;;;;;;6.25;1.08;;;;;;;16.78;100.00;100547.44;5019897;28;20029;-89
2023/08/21 04:29:40;;;;;;;8.60;1.13;;;;;;;16.76;100.00;100533.44;5013030;28;20128;-89
2023/08/21 04:32:06;;;;;;;6.65;0.88;;;;;;;16.76;100.00;100528.94;4981239;28;20064;-89
2023/08/21 04:34:33;;;;;;;6.57;0.50;;;;;;;16.81;100.00;100537.22;4995539;28;20444;-85
2023/08/21 04:36:59;;;;;;;8.48;1.35;;;;;;;16.81;100.00;100544.41;4985220;28;20030;-85
2023/08/21 04:39:25;;;;;;;10.05;0.80;;;;;;;16.77;100.00;100541.25;5007238;28;20046;-90
2023/08/21 04:41:52;;;;;;;10.27;1.00;;;;;;;16.81;100.00;100539.06;4993315;28;20058;-90
2023/08/21 04:44:18;;;;;;;6.65;1.30;;;;;;;16.82;100.00;100535.38;5002128;28;20042;-88
2023/08/21 04:46:48;;;;;;;5.10;0.70;;;;;;;16.82;100.00;100538.03;5034720;28;20091;-90
2023/08/21 04:49:14;;;;;;;5.97;1.02;;;;;;;16.80;100.00;100534.75;4999916;28;20994;-87
2023/08/21 04:51:40;;;;;;;6.82;1.20;;;;;;;16.74;100.00;100534.44;5003643;28;20108;-91
2023/08/21 04:54:06;;;;;;;12.18;1.00;;;;;;;16.76;100.00;100528.94;5016167;28;20045;-91
2023/08/21 04:56:32;;;;;;;7.20;1.20;;;;;;;16.73;100.00;100534.63;4996197;28;20041;-90
2023/08/21 04:59:01;;;;;;;3.72;0.70;;;;;;;16.71;100.00;100529.47;4995886;28;20516;-92
2023/08/21 05:01:29;;;;;;;7.22;1.20;;;;;;;16.71;100.00;100533.97;4998533;28;20103;-91
2023/08/21 05:03:57;;;;;;;6.20;1.00;;;;;;;16.71;100.00;100525.97;4978425;28;20114;-91
2023/08/21 05:06:23;;;;;;;5.07;0.70;;;;;;;16.71;100.00;100523.31;5001581;28;20033;-90
2023/08/21 05:08:50;;;;;;;4.95;0.65;;;;;;;16.68;100.00;100534.34;4980928;28;20081;-90
2023/08/21 05:11:18;;;;;;;5.70;0.70;;;;;;;16.62;100.00;100533.25;5023743;28;20030;-89
2023/08/21 05:13:44;;;;;;;4.20;0.70;;;;;;;16.53;100.00;100529.81;5016143;28;20400;-88
2023/08/21 05:16:14;;;;;;;7.97;0.90;;;;;;;16.56;100.00;100545.47;5012479;28;20033;-88
2023/08/21 05:18:41;;;;;;;5.97;0.77;;;;;;;16.51;100.00;100533.69;4997700;28;20130;-87
2023/08/21 05:21:07;;;;;;;7.05;1.00;;;;;;;16.52;100.00;100543.34;5005917;28;20124;-90
2023/08/21 05:23:33;;;;;;;5.40;1.17;;;;;;;16.46;100.00;100553.75;4997913;28;20038;-90
2023/08/21 05:26:03;;;;;;;4.72;0.80;;;;;;;16.43;100.00;100542.59;4996092;28;20138;-92
2023/08/21 05:28:29;;;;;;;5.63;1.00;;;;;;;16.47;100.00;100552.72;5010238;28;20060;-88
2023/08/21 05:30:57;;;;;;;5.18;0.95;;;;;;;16.45;100.00;100553.94;5007999;28;20034;-92
2023/08/21 05:33:26;;;;;;;9.77;1.25;;;;;;;16.45;100.00;100553.94;5008208;28;20112;-88
2023/08/21 05:35:53;;;;;;;7.57;0.98;;;;;;;16.43;100.00;100561.28;5006892;28;20100;-89
2023/08/21 05:38:19;;;;;;;10.00;1.10;;;;;;;16.46;100.00;100552.91;5016069;28;20037;-92
2023/08/21 05:40:45;;;;;;;14.10;1.20;;;;;;;16.47;100.00;100563.41;5008186;28;20034;-90
2023/08/21 05:43:11;;;;;;;11.50;1.40;;;;;;;16.47;100.00;100571.41;5000307;28;20036;-91
2023/08/21 05:45:40;;;;;;;11.52;1.58;;;;;;;16.49;100.00;100565.88;5027389;28;20116;-92
2023/08/21 05:48:06;;;;;;;8.10;1.10;;;;;;;16.52;100.00;100572.69;5019754;28;20140;-91
2023/08/21 05:50:32;;;;;;;3.83;0.77;;;;;;;16.47;100.00;100568.72;5026517;28;20427;-92
2023/08/21 05:53:01;;;;;;;8.35;0.85;;;;;;;16.45;100.00;100581.41;5004932;28;20034;-90
2023/08/21 05:55:27;;;;;;;6.90;1.10;;;;;;;16.46;100.00;100582.25;4985672;28;20037;-91
2023/08/21 05:57:53;;;;;;;11.52;1.65;;;;;;;16.42;100.00;100576.44;5010541;28;20038;-91
2023/08/21 06:00:19;;;;;;;7.43;1.20;;;;;;;16.41;100.00;100581.97;5006270;28;20080;-89
2023/08/21 06:02:45;;;;;;;9.05;1.38;;;;;;;16.39;100.00;100587.47;5016247;28;20480;-89
2023/08/21 06:05:25;;;;;;;9.95;1.83;;;;;;;16.39;100.00;100584.81;5021235;28;20518;-90
2023/08/21 06:07:52;;;;;;;5.00;1.15;;;;;;;16.41;100.00;100596.13;5003419;28;20034;-89
2023/08/21 06:10:18;;;;;;;6.85;1.15;;;;;;;16.41;100.00;100585.47;5011723;28;20507;-91
2023/08/21 06:12:44;;;;;;;7.28;1.02;;;;;;;16.39;100.00;100589.34;5017153;28;20100;-91
2023/08/21 06:15:13;;;;;;;8.77;1.30;;;;;;;16.42;100.00;100592.44;5004592;28;20558;-91
2023/08/21 06:17:40;;;;;;;7.72;1.42;;;;;;;16.40;100.00;100589.16;5020177;28;20096;-91
2023/08/21 06:20:08;;;;;;;12.32;1.25;;;;;;;16.44;100.00;100602.94;4987472;28;20464;-84
2023/08/21 06:22:37;;;;;;;13.07;1.23;;;;;;;16.42;100.00;100600.44;4997547;28;20053;-84
2023/08/21 06:25:04;;;;;;;14.25;1.65;;;;;;;16.38;100.00;100601.81;4985525;28;20041;-89
2023/08/21 06:27:30;;;;;;;13.30;1.50;;;;;;;16.41;100.00;100601.47;5017712;28;20041;-93
2023/08/21 06:29:56;;;;;;;11.25;1.50;;;;;;;16.36;100.00;100596.66;5016162;28;20037;-90
2023/08/21 06:32:22;;;;;;;9.85;1.23;;;;;;;16.40;100.00;100604.31;4982891;28;20427;-91
2023/08/21 06:34:48;;;;;;;9.88;1.40;;;;;;;16.45;100.00;100605.44;4998473;28;20137;-90
2023/08/21 06:37:14;;;;;;;10.15;1.20;;;;;;;16.38;100.00;100609.84;4987187;28;20045;-89
2023/08/21 06:39:40;;;;;;;8.13;1.35;;;;;;;16.37;100.00;100606.31;4998997;28;20029;-92
2023/08/21 06:42:06;;;;;;;6.65;1.23;;;;;;;16.39;100.00;100608.00;5000929;28;20041;-90
2023/08/21 06:44:40;;;;;;;13.60;1.42;;;;;;;16.39;100.00;100608.00;5017576;28;20109;-92
2023/08/21 06:47:06;;;;;;;10.57;1.40;;;;;;;16.42;100.00;100612.97;4997990;28;20120;-91
2023/08/21 06:49:33;;;;;;;9.13;1.13;;;;;;;16.44;100.00;100611.78;4988567;28;20053;-91
2023/08/21 06:51:59;;;;;;;10.52;1.42;;;;;;;16.48;100.00;100620.25;4996901;28;20022;-91
2023/08/21 06:54:25;;;;;;;12.35;1.58;;;;;;;16.51;100.00;100621.72;5010043;28;20026;-91
2023/08/21 06:56:54;;;;;;;10.13;1.10;;;;;;;16.52;100.00;100628.72;4994438;28;20061;-90
2023/08/21 06:59:20;;;;;;;11.30;1.55;;;;;;;16.49;100.00;100620.09;5010393;28;20046;-90
2023/08/21 07:01:46;;;;;;;11.02;1.50;;;;;;;16.57;100.00;100632.53;4998494;28;20038;-91
2023/08/21 07:04:14;;;;;;;11.02;2.10;;;;;;;16.56;100.00;100628.19;5013582;28;20504;-91
2023/08/21 07:06:42;;;;;;;7.15;1.08;;;;;;;16.63;100.00;100620.28;4998968;28;20150;-91
2023/08/21 07:09:09;;;;;;;10.15;1.27;;;;;;;16.57;100.00;100611.19;4981670;28;20044;-90
2023/08/21 07:11:35;;;;;;;8.88;1.60;;;;;;;16.63;100.00;100611.47;4998334;28;20045;-88
2023/08/21 07:14:03;;;;;;;10.63;2.03;;;;;;;16.64;100.00;100615.78;4997899;28;20582;-94
2023/08/21 07:16:29;;;;;;;9.07;1.55;;;;;;;16.66;100.00;100611.91;4999691;28;20052;-92
2023/08/21 07:18:55;;;;;;;5.72;1.58;;;;;;;16.69;100.00;100603.56;4999811;28;20447;-92
2023/08/21 07:21:21;;;;;;;9.43;1.52;;;;;;;16.70;100.00;100607.91;4981536;28;20041;-92
2023/08/21 07:23:50;;;;;;;13.43;1.33;;;;;;;16.78;100.00;100614.16;5008172;28;20076;-91
2023/08/21 07:26:16;;;;;;;10.70;1.60;;;;;;;16.73;100.00;100612.88;4997467;28;20092;-92
2023/08/21 07:28:42;;;;;;;7.70;1.50;;;;;;;16.86;100.00;100630.94;4984012;28;20031;-93
2023/08/21 07:31:08;;;;;;;11.85;1.60;;;;;;;16.90;100.00;100623.38;4999996;28;20038;-90
2023/08/21 07:33:34;;;;;;;10.38;1.73;;;;;;;16.92;100.00;100613.34;5003075;28;20041;-89
2023/08/21 07:36:02;;;;;;;9.55;1.50;;;;;;;16.98;100.00;100611.78;4997275;28;20046;-91
2023/08/21 07:38:28;;;;;;;6.00;1.60;;;;;;;17.02;100.00;100610.44;5014937;28;20034;-92
2023/08/21 07:41:10;;;;;;;13.38;2.22;;;;;;;17.04;100.00;100613.72;5003418;28;20026;-92
2023/08/21 07:43:45;;;;;;;9.23;2.08;;;;;;;17.11;100.00;100620.03;4998382;28;20045;-93
2023/08/21 07:46:15;;;;;;;11.75;2.15;;;;;;;17.16;100.00;100610.63;5012598;28;20080;-91
2023/08/21 07:48:42;;;;;;;12.43;1.73;;;;;;;17.21;100.00;100626.94;5005657;28;20030;-90
2023/08/21 07:51:09;;;;;;;10.95;2.05;;;;;;;17.16;100.00;100614.16;4993972;28;20037;-90
2023/08/21 07:53:35;;;;;;;9.85;2.38;;;;;;;17.17;100.00;100601.63;5009226;28;20040;-91
2023/08/21 07:56:03;;;;;;;7.43;1.55;;;;;;;17.14;100.00;100605.47;5012389;28;20034;-93
2023/08/21 07:58:30;;;;;;;11.30;1.98;;;;;;;17.19;100.00;100605.75;4995721;28;20037;-94
2023/08/21 08:00:56;;;;;;;11.18;1.27;;;;;;;17.19;100.00;100594.25;5015304;28;20076;-90
2023/08/21 08:03:22;;;;;;;7.85;1.52;;;;;;;17.20;100.00;100607.41;4997116;28;20036;-91
2023/08/21 08:05:51;;;;;;;8.07;1.67;;;;;;;17.22;100.00;100608.06;4997956;28;20042;-89
2023/08/21 08:08:17;;;;;;;11.35;2.05;;;;;;;17.23;100.00;100609.72;5005394;28;20073;-91
2023/08/21 08:10:44;;;;;;;6.57;1.42;;;;;;;17.29;100.00;100607.31;4995459;28;20400;-90
2023/08/21 08:13:10;;;;;;;8.48;1.38;;;;;;;17.31;100.00;100606.09;5005819;28;20049;-89
2023/08/21 08:15:35;;;;;;;7.20;1.63;;;;;;;17.27;100.00;100599.50;4996236;28;20488;-93
2023/08/21 08:18:03;;;;;;;7.45;1.15;;;;;;;17.31;100.00;100599.97;4975375;28;20034;-90
2023/08/21 08:20:36;;;;;;;9.00;1.65;;;;;;;17.35;100.00;100593.22;5176869;27;20118;-87
2023/08/21 08:23:02;;;;;;;8.25;1.88;;;;;;;17.34;100.00;100589.72;5160834;27;20022;-87
2023/08/21 08:25:28;;;;;;;10.60;1.67;;;;;;;17.39;100.00;100599.84;5127523;27;20474;-87
2023/08/21 08:27:53;;;;;;;11.27;1.50;;;;;;;17.46;100.00;100587.41;5113838;27;20030;-87
2023/08/21 08:30:19;;;;;;;13.63;2.55;;;;;;;17.45;100.00;100599.13;5113479;27;20099;-87
2023/08/21 08:32:45;;;;;;;11.65;1.70;;;;;;;17.47;100.00;100588.25;5147289;27;20038;-88
2023/08/21 08:35:13;;;;;;;13.77;2.53;;;;;;;17.54;100.00;100597.16;5127690;27;20551;-87
2023/08/21 08:37:41;;;;;;;12.15;1.65;;;;;;;17.57;100.00;100587.94;5122136;27;20375;-86
2023/08/21 08:40:08;;;;;;;7.53;1.80;;;;;;;17.59;100.00;100589.41;5139764;27;20652;-85
2023/08/21 08:42:35;;;;;;;7.80;1.42;;;;;;;17.61;100.00;100594.56;5151272;27;20103;-86
2023/08/21 08:45:03;;;;;;;11.10;2.53;;;;;;;17.70;100.00;100608.66;5165105;27;20047;-85
2023/08/21 08:47:36;;;;;;;11.25;2.15;;;;;;;17.82;100.00;100606.31;5137827;27;20443;-86
2023/08/21 08:50:08;;;;;;;9.30;1.85;;;;;;;17.88;100.00;100610.91;5132296;27;20478;-86
2023/08/21 08:52:36;;;;;;;13.82;1.80;;;;;;;17.94;100.00;100606.66;5131154;27;20034;-87
2023/08/21 08:55:03;;;;;;;10.82;1.95;;;;;;;18.04;100.00;100601.00;5122201;27;20027;-86
2023/08/21 08:57:29;;;;;;;9.88;1.58;;;;;;;18.12;100.00;100605.44;5150845;27;20046;-87
2023/08/21 08:59:55;;;;;;;9.23;1.58;;;;;;;18.01;100.00;100606.72;5123781;27;20031;-87
2023/08/21 09:02:21;;;;;;;11.75;1.67;;;;;;;17.95;100.00;100598.44;5133573;27;20041;-86
2023/08/21 09:04:47;;;;;;;14.38;2.28;;;;;;;17.98;100.00;100614.09;5158672;27;20033;-88
2023/08/21 09:07:13;;;;;;;9.10;1.67;;;;;;;18.05;100.00;100621.38;5126067;27;20027;-87
2023/08/21 09:09:40;;;;;;;10.05;2.70;;;;;;;18.04;100.00;100604.50;5142382;27;20034;-89
2023/08/21 09:12:12;;;;;;;7.05;1.75;;;;;;;18.10;100.00;100617.13;5117583;27;20037;-87
2023/08/21 09:14:40;;;;;;;12.38;1.92;;;;;;;18.13;100.00;100620.44;5130268;27;20117;-88
2023/08/21 09:17:06;;;;;;;10.57;2.13;;;;;;;18.17;100.00;100613.72;5119822;27;20791;-87
2023/08/21 09:19:32;;;;;;;10.25;2.15;;;;;;;18.24;100.00;100609.25;5129243;27;20051;-89
2023/08/21 09:21:58;;;;;;;10.82;2.13;;;;;;;18.31;100.00;100618.19;5138924;27;20039;-87
2023/08/21 09:24:24;;;;;;;9.80;1.77;;;;;;;18.41;100.00;100596.41;5116512;27;20513;-87
2023/08/21 09:26:50;;;;;;;9.93;1.70;;;;;;;18.43;100.00;100604.25;5113054;27;20027;-87
2023/08/21 09:29:17;;;;;;;10.95;1.40;;;;;;;18.41;100.00;100612.47;5155697;27;20024;-86
2023/08/21 09:31:45;;;;;;;14.35;1.63;;;;;;;18.42;100.00;100610.63;5126550;27;20478;-87
2023/08/21 09:34:11;;;;;;;11.25;1.77;;;;;;;18.50;100.00;100613.19;5116430;27;20559;-86
2023/08/21 09:36:39;;;;;;;6.45;1.13;;;;;;;18.45;100.00;100599.53;5110353;28;20031;-87
2023/08/21 09:39:06;;;;;;;9.85;1.70;;;;;;;18.49;100.00;100606.16;5105262;27;20643;-87
2023/08/21 09:41:32;;;;;;;8.38;1.52;;;;;;;18.63;100.00;100603.59;5114724;27;20031;-87
2023/08/21 09:44:01;;;;;;;8.90;1.52;;;;;;;18.84;100.00;100600.06;5104503;27;20046;-87
2023/08/21 09:46:28;;;;;;;10.98;1.90;;;;;;;18.80;100.00;100606.81;5124590;27;20135;-87
2023/08/21 09:48:54;;;;;;;12.80;1.60;;;;;;;18.74;100.00;100587.00;5114366;27;20042;-87
2023/08/21 09:51:21;;;;;;;8.45;1.95;;;;;;;18.78;100.00;100598.13;5098144;27;20069;-86
2023/08/21 09:53:50;;;;;;;7.35;1.15;;;;;;;18.82;100.00;100594.91;5130479;27;20035;-87
2023/08/21 09:56:36;;;;;;;5.55;1.17;;;;;;;18.75;100.00;100595.84;5129060;27;20531;-88
2023/08/21 09:59:02;;;;;;;7.22;1.15;;;;;;;18.72;100.00;100581.84;5107235;28;20032;-87
2023/08/21 10:01:32;;;;;;;5.10;0.93;;;;;;;18.79;100.00;100597.94;5118587;27;20043;-87
2023/08/21 10:04:02;;;;;;;6.82;1.20;;;;;;;18.80;100.00;100594.25;5088785;27;20043;-89
2023/08/21 10:06:29;;;;;;;8.27;1.75;;;;;;;18.92;100.00;100589.16;5093932;27;20031;-86
2023/08/21 10:08:56;;;;;;;6.47;1.02;;;;;;;19.03;100.00;100582.44;5114859;27;20482;-87
2023/08/21 10:11:23;;;;;;;6.95;1.27;;;;;;;19.15;100.00;100576.56;5105646;27;20427;-87
2023/08/21 10:13:51;;;;;;;6.95;1.08;;;;;;;19.29;100.00;100580.13;5111728;28;20035;-85
2023/08/21 10:16:17;;;;;;;8.13;1.45;;;;;;;19.45;100.00;100577.13;5108532;27;20050;-87
2023/08/21 10:18:48;;;;;;;6.15;1.13;;;;;;;19.58;100.00;100581.69;5113485;27;20062;-87
2023/08/21 10:21:17;;;;;;;10.38;1.42;;;;;;;19.65;100.00;100576.34;5113721;27;20035;-87
2023/08/21 10:23:46;;;;;;;8.30;1.15;;;;;;;19.75;100.00;100565.22;5127577;27;20035;-86
2023/08/21 10:26:13;;;;;;;5.53;0.93;;;;;;;19.83;100.00;100572.25;5102240;27;20111;-86
2023/08/21 10:28:59;;;;;;;5.95;0.80;;;;;;;19.99;100.00;100567.56;5097312;28;20054;-87
2023/08/21 10:31:25;;;;;;;;;;;;;;;19.81;100.00;100568.97;5094646;27;20044;-87
2023/08/21 10:33:51;;;;;;;6.55;1.05;;;;;;;19.74;100.00;100571.63;5113746;27;20387;-86
2023/08/21 10:36:42;;;;;;;6.10;1.08;;;;;;;19.54;100.00;100572.38;5106432;27;20044;-85
2023/08/21 10:39:24;;;;;;;5.97;1.08;;;;;;;19.41;100.00;100562.47;5096177;27;20039;-86
2023/08/21 10:41:55;;;;;;;7.10;1.20;;;;;;;19.38;100.00;100567.41;5090612;28;20122;-86
2023/08/21 10:44:58;;;;;;;4.88;0.80;;;;;;;19.27;100.00;100566.13;5089692;27;20035;-87
2023/08/21 10:47:27;;;;;;;6.00;1.35;;;;;;;19.39;100.00;100561.84;5084656;27;20390;-87
2023/08/21 10:49:58;;;;;;;5.40;0.88;;;;;;;19.67;100.00;100560.06;5103653;28;20043;-87
2023/08/21 10:52:35;;;;;;;7.35;1.33;;;;;;;19.89;100.00;100546.50;5105896;27;20484;-88
2023/08/21 10:55:05;;;;;;;9.35;1.45;;;;;;;19.92;100.00;100549.56;5100108;27;20114;-87
2023/08/21 10:57:32;;;;;;;4.05;1.02;;;;;;;19.79;100.00;100555.78;5097125;27;20116;-88
2023/08/21 11:00:00;;;;;;;9.10;1.45;;;;;;;19.72;100.00;100560.28;5139659;27;20040;-87
2023/08/21 11:02:31;;;;;;;7.30;1.35;;;;;;;19.60;100.00;100557.38;5090588;27;20402;-88
2023/08/21 11:04:58;;;;;;;6.75;1.20;;;;;;;19.69;100.00;100560.69;5107137;27;20118;-89
2023/08/21 11:07:24;;;;;;;6.85;1.45;;;;;;;19.97;100.00;100549.00;5107500;28;20032;-88
2023/08/21 11:09:50;;;;;;;5.53;1.17;;;;;;;20.23;100.00;100541.19;5113320;27;20024;-88
2023/08/21 11:12:19;;;;;;;7.15;1.30;;;;;;;20.36;100.00;100527.75;5109239;28;20035;-86
2023/08/21 11:14:45;;;;;;;8.27;1.10;;;;;;;20.42;100.00;100531.47;5106755;27;20039;-87
2023/08/21 11:17:12;;;;;;;3.47;1.10;;;;;;;20.50;100.00;100517.00;5113493;27;20063;-87